| time (UTC) | temp F | wind direction | speed knots | gust knots | rain 1hr in | rain 24hr in | rain mn in | humidity % | barometer mb |
| 20260505200123 | 40 | 17 | 2.6 | 7.8 | 0.01 | 0.22 | 0.00 | 88 | 1014.3 |
| 20260505195619 | 40 | 23 | 2.6 | 6.1 | 0.01 | 0.21 | 0.00 | 88 | 1014.3 |
| 20260505195116 | 40 | 24 | 2.6 | 4.3 | 0.01 | 0.21 | 0.00 | 88 | 1014.3 |
| 20260505194613 | 40 | 37 | 1.7 | 5.2 | 0.01 | 0.21 | 0.00 | 88 | 1014.3 |
| 20260505194110 | 40 | 64 | 0.9 | 7.8 | 0.01 | 0.21 | 0.00 | 88 | 1014.3 |
| 20260505193606 | 40 | 12 | 2.6 | 7.8 | 0.01 | 0.21 | 0.00 | 88 | 1014.3 |
| 20260505193103 | 40 | 44 | 2.6 | 7.0 | 0.01 | 0.21 | 0.00 | 89 | 1014.2 |
| 20260505192600 | 39 | 51 | 1.7 | 7.8 | 0.01 | 0.21 | 0.00 | 88 | 1014.2 |
| 20260505192058 | 39 | 76 | 4.3 | 7.8 | 0.02 | 0.21 | 0.00 | 88 | 1014.2 |
| 20260505191555 | 39 | 59 | 1.7 | 7.8 | 0.02 | 0.21 | 0.00 | 88 | 1014.2 |
| 20260505191052 | 39 | 42 | 3.5 | 7.8 | 0.02 | 0.21 | 0.00 | 88 | 1014.2 |
| 20260505190549 | 38 | 38 | 2.6 | 9.6 | 0.02 | 0.21 | 0.00 | 88 | 1014.3 |
| 20260505190046 | 38 | 46 | 2.6 | 9.6 | 0.02 | 0.21 | 0.00 | 88 | 1014.4 |
| 20260505185542 | 38 | 50 | 0.9 | 9.6 | 0.01 | 0.20 | 0.00 | 88 | 1014.5 |
| 20260505185039 | 39 | 39 | 6.1 | 8.7 | 0.01 | 0.20 | 0.00 | 88 | 1014.5 |
| 20260505184536 | 39 | 5 | 1.7 | 4.3 | 0.01 | 0.20 | 0.00 | 89 | 1014.7 |
| 20260505184033 | 39 | 63 | 2.6 | 5.2 | 0.01 | 0.20 | 0.00 | 88 | 1014.8 |
| 20260505183530 | 39 | 46 | 0.9 | 6.1 | 0.01 | 0.20 | 0.00 | 88 | 1015.0 |
| 20260505183027 | 39 | 5 | 2.6 | 7.8 | 0.01 | 0.20 | 0.00 | 88 | 1015.2 |
| 20260505182524 | 39 | 17 | 1.7 | 8.7 | 0.01 | 0.20 | 0.00 | 88 | 1015.1 |
| 20260505182021 | 40 | 67 | 1.7 | 5.2 | 0.00 | 0.19 | 0.00 | 89 | 1015.1 |
| 20260505181518 | 40 | 43 | 0.9 | 7.0 | 0.00 | 0.19 | 0.00 | 89 | 1015.1 |
| 20260505181015 | 40 | 30 | 7.0 | 7.0 | 0.00 | 0.19 | 0.00 | 89 | 1015.1 |
| 20260505180512 | 39 | 17 | 2.6 | 7.0 | 0.00 | 0.19 | 0.00 | 89 | 1015.2 |
| 20260505180009 | 39 | 9 | 2.6 | 6.1 | 0.00 | 0.19 | 0.00 | 89 | 1015.3 |
| 20260505175505 | 39 | 33 | 2.6 | 6.1 | 0.00 | 0.19 | 0.00 | 89 | 1015.3 |
| 20260505175002 | 39 | 46 | 0.9 | 6.1 | 0.01 | 0.19 | 0.00 | 89 | 1015.4 |
| 20260505174459 | 39 | 38 | 1.7 | 6.1 | 0.01 | 0.19 | 0.00 | 89 | 1015.4 |
| 20260505173956 | 39 | 34 | 1.7 | 6.1 | 0.01 | 0.19 | 0.00 | 89 | 1015.5 |
| 20260505173452 | 39 | 22 | 2.6 | 6.1 | 0.01 | 0.19 | 0.00 | 89 | 1015.5 |
| 20260505172949 | 39 | 9 | 1.7 | 5.2 | 0.01 | 0.19 | 0.00 | 89 | 1015.6 |
| 20260505172446 | 39 | 28 | 1.7 | 5.2 | 0.01 | 0.19 | 0.00 | 89 | 1015.6 |
| 20260505171941 | 39 | 360 | 1.7 | 5.2 | 0.01 | 0.19 | 0.00 | 89 | 1015.6 |
| 20260505171441 | 39 | 48 | 1.7 | 5.2 | 0.01 | 0.19 | 0.00 | 89 | 1015.7 |
| 20260505170936 | 39 | 344 | 2.6 | 4.3 | 0.01 | 0.19 | 0.00 | 89 | 1015.6 |
| 20260505170436 | 39 | 9 | 0.9 | 4.3 | 0.01 | 0.19 | 0.00 | 89 | 1015.6 |
| 20260505165934 | 39 | 360 | 3.5 | 3.5 | 0.01 | 0.19 | 0.00 | 89 | 1015.7 |
| 20260505165431 | 39 | 58 | 3.5 | 3.5 | 0.01 | 0.19 | 0.00 | 89 | 1015.7 |
| 20260505164928 | 39 | 32 | 2.6 | 3.5 | 0.00 | 0.18 | 0.00 | 89 | 1015.7 |
| 20260505164425 | 39 | 347 | 0.0 | 2.6 | 0.00 | 0.18 | 0.00 | 89 | 1015.7 |
| 20260505163922 | 38 | 37 | 0.0 | 4.3 | 0.00 | 0.18 | 0.00 | 89 | 1015.8 |
| 20260505163418 | 39 | 38 | 3.5 | 4.3 | 0.00 | 0.18 | 0.00 | 89 | 1015.8 |
| 20260505162915 | 39 | 29 | 1.7 | 4.3 | 0.00 | 0.18 | 0.00 | 89 | 1015.8 |
| 20260505162413 | 39 | 13 | 1.7 | 3.5 | 0.00 | 0.18 | 0.00 | 89 | 1015.9 |
| 20260505161910 | 39 | 50 | 0.9 | 3.5 | 0.00 | 0.18 | 0.00 | 89 | 1015.9 |
| 20260505161407 | 38 | 337 | 2.6 | 4.3 | 0.00 | 0.18 | 0.00 | 89 | 1015.9 |
| 20260505160904 | 38 | 14 | 0.9 | 4.3 | 0.00 | 0.18 | 0.00 | 89 | 1015.9 |
| 20260505160401 | 38 | 352 | 0.0 | 7.0 | 0.00 | 0.18 | 0.00 | 89 | 1015.9 |
| 20260505153342 | 38 | 285 | 0.9 | 4.3 | 0.01 | 0.18 | 0.00 | 89 | 1016.2 |
| 20260505152838 | 38 | 29 | 0.9 | 4.3 | 0.01 | 0.18 | 0.00 | 89 | 1016.1 |
| 20260505152335 | 38 | 325 | 0.0 | 2.6 | 0.01 | 0.18 | 0.00 | 89 | 1016.2 |
| 20260505151831 | 38 | 345 | 1.7 | 2.6 | 0.01 | 0.18 | 0.00 | 89 | 1016.2 |
| 20260505151328 | 38 | 298 | 1.7 | 2.6 | 0.01 | 0.18 | 0.00 | 89 | 1016.2 |
| 20260505150825 | 37 | 352 | 0.0 | 4.3 | 0.01 | 0.18 | 0.00 | 89 | 1016.1 |
| 20260505150322 | 38 | 304 | 1.7 | 4.3 | 0.01 | 0.18 | 0.00 | 89 | 1016.2 |
| 20260505140243 | 37 | 304 | 0.9 | 7.0 | 0.02 | 0.17 | 0.00 | 89 | 1016.3 |
| 20260505130206 | 37 | 308 | 3.5 | 8.7 | 0.01 | 0.15 | 0.00 | 88 | 1015.6 |
| 20260505124656 | 37 | 315 | 3.5 | 8.7 | 0.01 | 0.15 | 0.00 | 88 | 1015.2 |
| 20260505124153 | 37 | 19 | 3.5 | 8.7 | 0.02 | 0.15 | 0.00 | 88 | 1015.2 |
| 20260505123649 | 37 | 352 | 5.2 | 10.4 | 0.02 | 0.15 | 0.00 | 88 | 1015.1 |
| 20260505123146 | 37 | 298 | 0.9 | 10.4 | 0.03 | 0.15 | 0.00 | 88 | 1015.0 |
| 20260505122643 | 37 | 34 | 1.7 | 7.8 | 0.05 | 0.15 | 0.00 | 88 | 1015.0 |
| 20260505122140 | 37 | 298 | 1.7 | 7.8 | 0.06 | 0.15 | 0.00 | 88 | 1015.1 |
| 20260505121637 | 37 | 312 | 2.6 | 7.8 | 0.07 | 0.15 | 0.00 | 87 | 1015.0 |
| 20260505121133 | 38 | 298 | 1.7 | 7.8 | 0.06 | 0.14 | 0.00 | 88 | 1015.0 |
| 20260505120630 | 38 | 312 | 1.7 | 11.3 | 0.06 | 0.14 | 0.00 | 87 | 1014.9 |
| 20260505120127 | 38 | 297 | 4.3 | 11.3 | 0.06 | 0.14 | 0.00 | 87 | 1014.8 |
| 20260505115623 | 38 | 351 | 3.5 | 9.6 | 0.06 | 0.14 | 0.00 | 87 | 1014.8 |
| 20260505115120 | 38 | 18 | 1.7 | 11.3 | 0.07 | 0.14 | 0.00 | 87 | 1014.8 |
| 20260505114616 | 39 | 314 | 5.2 | 11.3 | 0.06 | 0.13 | 0.00 | 87 | 1014.7 |
| 20260505114113 | 39 | 15 | 4.3 | 7.8 | 0.08 | 0.13 | 0.00 | 87 | 1014.6 |
| 20260505113610 | 39 | 42 | 5.2 | 11.3 | 0.08 | 0.13 | 0.00 | 87 | 1014.5 |
| 20260505113107 | 40 | 9 | 0.9 | 11.3 | 0.07 | 0.12 | 0.00 | 87 | 1014.5 |
| 20260505112603 | 40 | 22 | 5.2 | 11.3 | 0.06 | 0.10 | 0.00 | 87 | 1014.5 |
| 20260505112100 | 40 | 16 | 3.5 | 11.3 | 0.05 | 0.09 | 0.00 | 87 | 1014.4 |
| 20260505111557 | 40 | 314 | 4.3 | 13.0 | 0.04 | 0.08 | 0.00 | 87 | 1014.3 |
| 20260505111054 | 40 | 304 | 3.5 | 13.0 | 0.04 | 0.08 | 0.00 | 87 | 1014.2 |
| 20260505110550 | 40 | 17 | 3.5 | 10.4 | 0.05 | 0.08 | 0.00 | 87 | 1014.2 |
| 20260505102020 | 42 | 340 | 3.5 | 11.3 | 0.04 | 0.04 | 0.00 | 87 | 1013.3 |
| 20260505101517 | 42 | 317 | 3.5 | 10.4 | 0.04 | 0.04 | 0.00 | 87 | 1013.2 |
| 20260505101013 | 42 | 314 | 5.2 | 13.0 | 0.03 | 0.03 | 0.00 | 87 | 1013.1 |
| 20260505100510 | 43 | 297 | 7.0 | 13.0 | 0.03 | 0.03 | 0.00 | 87 | 1013.1 |
| 20260505100007 | 43 | 360 | 4.3 | 10.4 | 0.02 | 0.02 | 0.00 | 87 | 1012.9 |
| 20260505095504 | 43 | 207 | 1.7 | 10.4 | 0.01 | 0.01 | 0.00 | 87 | 1012.8 |
| 20260505095001 | 43 | 360 | 0.9 | 10.4 | 0.01 | 0.01 | 0.00 | 87 | 1012.8 |
| 20260505094457 | 44 | 323 | 4.3 | 10.4 | 0.00 | 0.00 | 0.00 | 87 | 1012.7 |
| 20260505093954 | 44 | 109 | 6.1 | 11.3 | 0.00 | 0.00 | 0.00 | 87 | 1012.6 |
| 20260505093451 | 44 | 323 | 3.5 | 10.4 | 0.00 | 0.00 | 0.00 | 87 | 1012.6 |
| 20260505092948 | 44 | 284 | 9.6 | 9.6 | 0.00 | 0.00 | 0.00 | 87 | 1012.6 |
| 20260505092444 | 44 | 317 | 5.2 | 13.0 | 0.00 | 0.00 | 0.00 | 87 | 1012.6 |
| 20260505091941 | 44 | 325 | 7.0 | 13.0 | 0.00 | 0.00 | 0.00 | 86 | 1012.6 |
| 20260505091436 | 44 | 280 | 7.0 | 10.4 | 0.00 | 0.00 | 0.00 | 86 | 1012.4 |
| 20260505090935 | 44 | 304 | 2.6 | 12.2 | 0.00 | 0.00 | 0.00 | 86 | 1012.3 |
| 20260505090432 | 45 | 280 | 3.5 | 12.2 | 0.00 | 0.00 | 0.00 | 85 | 1012.4 |
| 20260505085929 | 45 | 327 | 5.2 | 11.3 | 0.00 | 0.00 | 0.00 | 85 | 1012.4 |
| 20260505085425 | 45 | 323 | 4.3 | 9.6 | 0.00 | 0.00 | 0.00 | 85 | 1012.4 |
| 20260505084922 | 46 | 271 | 2.6 | 10.4 | 0.00 | 0.00 | 0.00 | 84 | 1012.4 |
| 20260505084419 | 46 | 271 | 5.2 | 12.2 | 0.00 | 0.00 | 0.00 | 84 | 1012.4 |
| 20260505083916 | 47 | 252 | 2.6 | 12.2 | 0.00 | 0.00 | 0.00 | 84 | 1012.4 |
| 20260505083413 | 48 | 262 | 2.6 | 10.4 | 0.00 | 0.00 | 0.00 | 84 | 1012.4 |
| 20260505082909 | 49 | 94 | 1.7 | 10.4 | 0.00 | 0.00 | 0.00 | 85 | 1012.4 |
| 20260505082406 | 49 | 68 | 0.9 | 4.3 | 0.00 | 0.00 | 0.00 | 85 | 1012.5 |
| 20260505081903 | 50 | 347 | 3.5 | 7.8 | 0.00 | 0.00 | 0.00 | 85 | 1012.5 |
| 20260505081400 | 50 | 360 | 4.3 | 5.2 | 0.00 | 0.00 | 0.00 | 85 | 1012.5 |
| 20260505080856 | 50 | 246 | 1.7 | 2.6 | 0.00 | 0.00 | 0.00 | 85 | 1012.6 |
| 20260505080353 | 49 | 317 | 0.9 | 2.6 | 0.00 | 0.00 | 0.00 | 85 | 1012.6 |
| 20260505075850 | 49 | 16 | 0.9 | 2.6 | 0.00 | 0.00 | 0.00 | 85 | 1012.4 |
| 20260505075347 | 49 | 344 | 0.9 | 2.6 | 0.00 | 0.00 | 0.00 | 85 | 1012.4 |
| 20260505074843 | 49 | 17 | 0.9 | 1.7 | 0.00 | 0.00 | 0.00 | 85 | 1012.4 |
| 20260505074340 | 49 | 94 | 0.0 | 1.7 | 0.00 | 0.00 | 0.00 | 85 | 1012.4 |
| 20260505073837 | 49 | 0 | 0.0 | 1.7 | 0.00 | 0.00 | 0.00 | 85 | 1012.5 |
| 20260505073334 | 49 | 170 | 0.0 | 1.7 | 0.00 | 0.00 | 0.00 | 85 | 1012.5 |
| 20260505072831 | 49 | 195 | 0.0 | 2.6 | 0.00 | 0.00 | 0.00 | 85 | 1012.6 |
| 20260505072327 | 49 | 173 | 0.9 | 3.5 | 0.00 | 0.00 | 0.00 | 85 | 1012.4 |
| 20260505071824 | 49 | 184 | 0.9 | 3.5 | 0.00 | 0.00 | 0.00 | 85 | 1012.5 |
| 20260505071320 | 49 | 207 | 1.7 | 3.5 | 0.00 | 0.00 | 0.00 | 85 | 1012.6 |
| 20260505070817 | 49 | 211 | 0.9 | 1.7 | 0.00 | 0.00 | 0.00 | 85 | 1012.6 |
| 20260505070314 | 49 | 192 | 0.9 | 3.5 | 0.00 | 0.00 | 0.00 | 85 | 1012.6 |
| 20260505065811 | 49 | 188 | 0.0 | 3.5 | 0.00 | 0.00 | 0.00 | 85 | 1012.6 |
| 20260505065308 | 49 | 187 | 1.7 | 3.5 | 0.00 | 0.00 | 0.00 | 85 | 1012.6 |
| 20260505064805 | 49 | 180 | 0.0 | 2.6 | 0.00 | 0.00 | 0.00 | 85 | 1012.6 |
| 20260505064301 | 49 | 205 | 1.7 | 2.6 | 0.00 | 0.00 | 0.00 | 85 | 1012.6 |
| 20260505063758 | 49 | 188 | 0.9 | 2.6 | 0.00 | 0.00 | 0.00 | 85 | 1012.5 |
| 20260505063255 | 49 | 197 | 0.9 | 1.7 | 0.00 | 0.00 | 0.00 | 85 | 1012.5 |
| 20260505062752 | 49 | 199 | 0.0 | 2.6 | 0.00 | 0.00 | 0.00 | 85 | 1012.6 |
| 20260505062248 | 49 | 190 | 0.0 | 2.6 | 0.00 | 0.00 | 0.00 | 85 | 1012.6 |
| 20260505061745 | 49 | 175 | 0.9 | 1.7 | 0.00 | 0.00 | 0.00 | 85 | 1012.6 |
| 20260505061242 | 49 | 0 | 0.0 | 1.7 | 0.00 | 0.00 | 0.00 | 85 | 1012.8 |
| 20260505060739 | 49 | 266 | 0.0 | 1.7 | 0.00 | 0.00 | 0.00 | 85 | 1012.9 |
| 20260505060235 | 49 | 260 | 0.0 | 1.7 | 0.01 | 0.00 | 0.00 | 85 | 1012.7 |
| 20260505055732 | 49 | 255 | 0.0 | 1.7 | 0.01 | 0.11 | 0.00 | 85 | 1012.8 |
| 20260505055229 | 49 | 229 | 1.7 | 2.6 | 0.01 | 0.11 | 0.00 | 85 | 1012.8 |
| 20260505054726 | 49 | 252 | 0.9 | 2.6 | 0.01 | 0.11 | 0.00 | 85 | 1012.9 |
| 20260505054222 | 49 | 230 | 1.7 | 1.7 | 0.01 | 0.11 | 0.00 | 84 | 1012.8 |
| 20260505053719 | 49 | 238 | 0.9 | 2.6 | 0.01 | 0.11 | 0.00 | 84 | 1012.6 |
| 20260505053216 | 49 | 225 | 1.7 | 2.6 | 0.01 | 0.11 | 0.00 | 84 | 1012.5 |
| 20260505052713 | 49 | 209 | 0.9 | 2.6 | 0.02 | 0.11 | 0.00 | 84 | 1012.4 |
| 20260505052210 | 49 | 213 | 1.7 | 2.6 | 0.02 | 0.11 | 0.00 | 84 | 1012.4 |
| 20260505051707 | 49 | 228 | 0.9 | 2.6 | 0.03 | 0.11 | 0.00 | 84 | 1012.5 |
| 20260505051203 | 49 | 0 | 0.0 | 2.6 | 0.03 | 0.11 | 0.00 | 84 | 1012.8 |
| 20260505050700 | 49 | 249 | 2.6 | 2.6 | 0.03 | 0.10 | 0.00 | 83 | 1013.0 |
| 20260505050157 | 50 | 256 | 0.9 | 1.7 | 0.04 | 0.10 | 0.00 | 83 | 1012.8 |
| 20260505041627 | 51 | 275 | 1.7 | 6.1 | 0.06 | 0.08 | 0.00 | 81 | 1013.3 |
| 20260505041124 | 51 | 259 | 2.6 | 3.5 | 0.07 | 0.08 | 0.00 | 81 | 1013.5 |
| 20260505040621 | 51 | 241 | 0.9 | 2.6 | 0.07 | 0.07 | 0.00 | 80 | 1013.3 |
| 20260505040118 | 51 | 263 | 1.7 | 3.5 | 0.06 | 0.06 | 0.00 | 80 | 1013.2 |
| 20260505035615 | 51 | 279 | 1.7 | 4.3 | 0.06 | 0.06 | 0.00 | 80 | 1013.2 |
| 20260505035112 | 51 | 254 | 0.9 | 6.1 | 0.05 | 0.05 | 0.00 | 80 | 1013.2 |
| 20260505034608 | 52 | 265 | 0.9 | 7.0 | 0.05 | 0.05 | 0.00 | 79 | 1013.2 |
| 20260505034105 | 52 | 245 | 1.7 | 7.0 | 0.05 | 0.05 | 0.00 | 78 | 1013.1 |
| 20260505033602 | 52 | 281 | 1.7 | 7.0 | 0.05 | 0.05 | 0.00 | 78 | 1013.4 |
| 20260505033059 | 52 | 250 | 1.7 | 7.0 | 0.05 | 0.05 | 0.00 | 76 | 1013.4 |
| 20260505032555 | 52 | 305 | 3.5 | 7.0 | 0.04 | 0.04 | 0.00 | 74 | 1013.3 |
| 20260505032052 | 53 | 304 | 0.9 | 6.1 | 0.03 | 0.03 | 0.00 | 72 | 1013.2 |
| 20260505031549 | 54 | 300 | 2.6 | 7.8 | 0.02 | 0.02 | 0.00 | 70 | 1013.0 |
| 20260505031046 | 54 | 298 | 3.5 | 8.7 | 0.00 | 0.00 | 0.00 | 68 | 1012.9 |
| 20260505030542 | 54 | 307 | 7.8 | 8.7 | 0.00 | 0.00 | 0.00 | 65 | 1012.8 |
| 20260505030040 | 54 | 347 | 3.5 | 8.7 | 0.00 | 0.00 | 0.00 | 63 | 1012.4 |
| 20260505025537 | 55 | 275 | 1.7 | 7.0 | 0.00 | 0.00 | 0.00 | 62 | 1012.1 |
| 20260505025032 | 55 | 336 | 1.7 | 4.3 | 0.00 | 0.00 | 0.00 | 62 | 1012.0 |
| 20260505024529 | 55 | 333 | 0.9 | 7.8 | 0.00 | 0.00 | 0.00 | 61 | 1011.8 |
| 20260505024026 | 55 | 311 | 2.6 | 7.8 | 0.00 | 0.00 | 0.00 | 59 | 1011.7 |
| 20260505023523 | 55 | 313 | 0.9 | 5.2 | 0.00 | 0.00 | 0.00 | 59 | 1011.6 |
| 20260505023020 | 55 | 250 | 1.7 | 7.0 | 0.00 | 0.00 | 0.00 | 59 | 1011.5 |
| 20260505022517 | 55 | 345 | 7.0 | 9.6 | 0.00 | 0.00 | 0.00 | 59 | 1011.4 |
| 20260505022014 | 56 | 32 | 3.5 | 9.6 | 0.00 | 0.00 | 0.00 | 59 | 1011.2 |
| 20260505021511 | 56 | 9 | 6.1 | 7.8 | 0.00 | 0.00 | 0.00 | 58 | 1011.4 |
| 20260505021008 | 56 | 17 | 0.9 | 11.3 | 0.00 | 0.00 | 0.00 | 57 | 1011.2 |
| 20260505020504 | 57 | 18 | 7.0 | 13.9 | 0.00 | 0.00 | 0.00 | 56 | 1011.3 |
| 20260505020001 | 58 | 338 | 2.6 | 13.9 | 0.00 | 0.00 | 0.00 | 53 | 1011.5 |
| 20260505015458 | 58 | 10 | 6.1 | 7.8 | 0.00 | 0.00 | 0.00 | 50 | 1011.3 |
| 20260505014954 | 58 | 12 | 2.6 | 3.5 | 0.00 | 0.00 | 0.00 | 49 | 1011.3 |
| 20260505014451 | 59 | 349 | 0.9 | 2.6 | 0.00 | 0.00 | 0.00 | 49 | 1011.2 |
| 20260505013947 | 59 | 342 | 0.9 | 2.6 | 0.00 | 0.00 | 0.00 | 51 | 1011.0 |
| 20260505013444 | 59 | 323 | 0.0 | 4.3 | 0.00 | 0.00 | 0.00 | 50 | 1011.0 |
| 20260505012941 | 59 | 315 | 1.7 | 4.3 | 0.00 | 0.00 | 0.00 | 50 | 1011.1 |
| 20260505012436 | 59 | 316 | 1.7 | 2.6 | 0.00 | 0.00 | 0.00 | 50 | 1011.1 |
| 20260505011936 | 59 | 0 | 0.0 | 1.7 | 0.00 | 0.00 | 0.00 | 50 | 1011.0 |
| 20260505011435 | 59 | 0 | 0.0 | 1.7 | 0.00 | 0.00 | 0.00 | 50 | 1011.0 |
| 20260505010935 | 59 | 0 | 0.0 | 3.5 | 0.00 | 0.00 | 0.00 | 52 | 1011.1 |
| 20260505010434 | 60 | 210 | 0.0 | 3.5 | 0.00 | 0.00 | 0.00 | 53 | 1011.2 |
| 20260505005931 | 60 | 226 | 0.0 | 6.1 | 0.00 | 0.00 | 0.00 | 52 | 1011.1 |
| 20260505005429 | 61 | 234 | 0.0 | 6.1 | 0.00 | 0.00 | 0.00 | 51 | 1011.0 |
| 20260505004925 | 61 | 242 | 1.7 | 7.8 | 0.00 | 0.00 | 0.00 | 48 | 1010.9 |
| 20260505004422 | 62 | 271 | 0.9 | 7.8 | 0.00 | 0.00 | 0.00 | 41 | 1011.0 |
| 20260505003918 | 62 | 257 | 2.6 | 7.0 | 0.00 | 0.00 | 0.00 | 39 | 1011.0 |
| 20260505003415 | 62 | 277 | 2.6 | 7.0 | 0.00 | 0.00 | 0.00 | 39 | 1011.0 |
| 20260505002912 | 62 | 324 | 7.0 | 7.0 | 0.00 | 0.00 | 0.00 | 38 | 1010.9 |
| 20260505002408 | 62 | 285 | 0.9 | 4.3 | 0.00 | 0.00 | 0.00 | 38 | 1010.9 |
| 20260505001905 | 62 | 26 | 1.7 | 6.1 | 0.00 | 0.00 | 0.00 | 38 | 1010.7 |
| 20260505001402 | 62 | 314 | 0.9 | 6.1 | 0.00 | 0.00 | 0.00 | 38 | 1010.6 |
| 20260505000858 | 62 | 319 | 2.6 | 8.7 | 0.00 | 0.00 | 0.00 | 38 | 1010.5 |
| 20260505000355 | 62 | 309 | 4.3 | 8.7 | 0.00 | 0.00 | 0.00 | 38 | 1010.3 |
| 20260504235852 | 63 | 309 | 1.7 | 8.7 | 0.00 | 0.00 | 0.00 | 38 | 1010.3 |
| 20260504235349 | 63 | 307 | 7.8 | 8.7 | 0.00 | 0.00 | 0.00 | 38 | 1010.2 |
| 20260504234846 | 63 | 331 | 2.6 | 8.7 | 0.00 | 0.00 | 0.00 | 37 | 1010.2 |
| 20260504234343 | 63 | 311 | 7.8 | 9.6 | 0.00 | 0.00 | 0.00 | 37 | 1009.9 |
| 20260504233839 | 63 | 306 | 6.1 | 9.6 | 0.00 | 0.00 | 0.00 | 37 | 1009.9 |
| 20260504233336 | 64 | 360 | 7.0 | 10.4 | 0.00 | 0.00 | 0.00 | 36 | 1010.0 |
| 20260504232833 | 64 | 320 | 7.0 | 10.4 | 0.00 | 0.00 | 0.00 | 35 | 1009.8 |
| 20260504232329 | 64 | 323 | 4.3 | 9.6 | 0.00 | 0.00 | 0.00 | 35 | 1009.7 |
| 20260504231826 | 64 | 347 | 4.3 | 13.0 | 0.00 | 0.00 | 0.00 | 35 | 1009.7 |
| 20260504231322 | 64 | 252 | 7.0 | 13.0 | 0.00 | 0.00 | 0.00 | 35 | 1009.7 |
| 20260504230819 | 64 | 157 | 2.6 | 11.3 | 0.00 | 0.00 | 0.00 | 35 | 1009.7 |
| 20260504230316 | 64 | 286 | 2.6 | 12.2 | 0.00 | 0.00 | 0.00 | 35 | 1009.7 |
| 20260504225813 | 64 | 345 | 5.2 | 13.9 | 0.00 | 0.00 | 0.00 | 34 | 1009.6 |
| 20260504225310 | 64 | 298 | 4.3 | 14.8 | 0.00 | 0.00 | 0.00 | 35 | 1009.8 |
| 20260504224807 | 65 | 328 | 5.2 | 12.2 | 0.00 | 0.00 | 0.00 | 34 | 1009.7 |
| 20260504224304 | 65 | 313 | 8.7 | 12.2 | 0.00 | 0.00 | 0.00 | 34 | 1009.8 |
| 20260504223800 | 65 | 342 | 2.6 | 10.4 | 0.00 | 0.00 | 0.00 | 33 | 1009.8 |
| 20260504223257 | 65 | 276 | 3.5 | 10.4 | 0.00 | 0.00 | 0.00 | 32 | 1009.7 |
| 20260504222754 | 65 | 302 | 2.6 | 11.3 | 0.00 | 0.00 | 0.00 | 33 | 1009.7 |
| 20260504222251 | 65 | 305 | 6.1 | 13.0 | 0.00 | 0.00 | 0.00 | 32 | 1009.7 |
| 20260504221748 | 65 | 348 | 8.7 | 12.2 | 0.00 | 0.00 | 0.00 | 31 | 1009.6 |
| 20260504221245 | 65 | 46 | 4.3 | 12.2 | 0.00 | 0.00 | 0.00 | 31 | 1009.5 |
| 20260504220741 | 65 | 313 | 9.6 | 15.6 | 0.00 | 0.00 | 0.00 | 30 | 1009.3 |
| 20260504220240 | 65 | 302 | 2.6 | 15.6 | 0.00 | 0.00 | 0.00 | 31 | 1009.0 |
| 20260504215737 | 66 | 338 | 4.3 | 12.2 | 0.00 | 0.00 | 0.00 | 31 | 1008.8 |
| 20260504215234 | 66 | 327 | 3.5 | 16.5 | 0.00 | 0.00 | 0.00 | 30 | 1008.7 |
| 20260504214731 | 66 | 305 | 2.6 | 16.5 | 0.00 | 0.00 | 0.00 | 31 | 1008.4 |
| 20260504214227 | 66 | 39 | 1.7 | 14.8 | 0.00 | 0.00 | 0.00 | 31 | 1008.6 |
| 20260504213724 | 66 | 31 | 5.2 | 16.5 | 0.00 | 0.00 | 0.00 | 30 | 1008.5 |
| 20260504213221 | 67 | 352 | 7.0 | 16.5 | 0.00 | 0.00 | 0.00 | 28 | 1008.7 |
| 20260504212720 | 68 | 51 | 6.1 | 15.6 | 0.00 | 0.00 | 0.00 | 25 | 1008.8 |
| 20260504212217 | 68 | 64 | 7.0 | 11.3 | 0.00 | 0.00 | 0.00 | 24 | 1008.6 |
| 20260504211713 | 69 | 61 | 7.8 | 9.6 | 0.00 | 0.00 | 0.00 | 24 | 1008.7 |
| 20260504211210 | 69 | 57 | 2.6 | 8.7 | 0.00 | 0.00 | 0.00 | 23 | 1008.7 |
| 20260504210707 | 69 | 259 | 0.0 | 8.7 | 0.00 | 0.00 | 0.00 | 23 | 1008.7 |
| 20260504210204 | 69 | 66 | 4.3 | 9.6 | 0.00 | 0.00 | 0.00 | 24 | 1008.7 |
| 20260504205701 | 68 | 64 | 7.8 | 9.6 | 0.00 | 0.00 | 0.00 | 22 | 1008.7 |
| 20260504205157 | 67 | 26 | 0.9 | 11.3 | 0.00 | 0.00 | 0.00 | 23 | 1008.9 |
| 20260504204654 | 67 | 31 | 1.7 | 11.3 | 0.00 | 0.00 | 0.00 | 25 | 1008.9 |
| 20260504204150 | 67 | 72 | 9.6 | 11.3 | 0.00 | 0.00 | 0.00 | 25 | 1009.3 |
| 20260504203647 | 66 | 338 | 0.9 | 11.3 | 0.00 | 0.00 | 0.00 | 26 | 1009.4 |
| 20260504203144 | 66 | 42 | 0.0 | 17.4 | 0.00 | 0.00 | 0.00 | 27 | 1009.6 |
| 20260504202641 | 67 | 173 | 10.4 | 17.4 | 0.00 | 0.00 | 0.00 | 26 | 1009.7 |
| 20260504202138 | 67 | 269 | 1.7 | 11.3 | 0.00 | 0.00 | 0.00 | 25 | 1009.7 |
| 20260504201635 | 66 | 9 | 0.9 | 11.3 | 0.00 | 0.00 | 0.00 | 25 | 1009.8 |
| 20260504201131 | 66 | 29 | 2.6 | 11.3 | 0.00 | 0.00 | 0.00 | 26 | 1009.8 |
| 20260504200628 | 65 | 134 | 2.6 | 14.8 | 0.00 | 0.00 | 0.00 | 27 | 1010.1 |